Time;durP1;ratioP1;P1;durP2;ratioP2;P2;SDS_P1;SDS_P2;PMS_P1;PMS_P2;Temp;Humidity;BMP_temperature;BMP_pressure;BME280_temperature;BME280_humidity;BME280_pressure;Samples;Min_cycle;Max_cycle;Signal;HPM_P1;HPM_P2
2021/12/12 00:02:08;;;;;;;;;;;;;;;17.74;67.58;99752.34;5088556;28;1968;-48
2021/12/12 00:04:38;;;;;;;;;;;;;;;17.83;68.09;99731.88;5088958;28;1835;-47
2021/12/12 00:07:06;;;;;;;;;;;;;;;17.97;68.37;99758.13;5074392;28;1635;-49
2021/12/12 00:09:35;;;;;;;;;;;;;;;18.04;68.42;99731.56;5082900;28;1080;-47
2021/12/12 00:12:04;;;;;;;;;;;;;;;18.09;67.64;99723.94;5086594;28;2113;-48
2021/12/12 00:14:32;;;;;;;;;;;;;;;18.08;68.11;99711.53;5086823;28;1957;-47
2021/12/12 00:16:59;;;;;;;;;;;;;;;18.02;68.73;99712.16;5085036;28;1705;-47
2021/12/12 00:19:27;;;;;;;;;;;;;;;18.07;68.52;99715.22;5085435;28;1917;-48
2021/12/12 00:21:56;;;;;;;;;;;;;;;18.05;67.90;99698.50;5076987;28;2183;-47
2021/12/12 00:24:23;;;;;;;;;;;;;;;18.10;68.30;99720.25;5086502;28;2047;-47
2021/12/12 00:26:51;;;;;;;;;;;;;;;18.09;68.36;99703.38;5086148;28;1966;-47
2021/12/12 00:29:18;;;;;;;;;;;;;;;18.04;68.17;99710.19;5077364;28;2069;-48
2021/12/12 00:31:46;;;;;;;;;;;;;;;18.04;68.28;99704.81;5085677;28;1980;-47
2021/12/12 00:34:12;;;;;;;;;;;;;;;18.00;68.77;99714.16;5085498;28;1595;-47
2021/12/12 00:36:41;;;;;;;;;;;;;;;18.01;68.47;99718.53;5085192;28;1045;-47
2021/12/12 00:39:12;;;;;;;;;;;;;;;18.03;68.19;99730.75;5085658;28;1922;-48
2021/12/12 00:41:41;;;;;;;;;;;;;;;17.98;68.46;99714.31;5084781;28;1774;-47
2021/12/12 00:44:08;;;;;;;;;;;;;;;17.96;67.84;99708.28;5084261;28;1796;-47
2021/12/12 00:46:35;;;;;;;;;;;;;;;17.89;68.30;99718.75;5083947;28;1748;-47
2021/12/12 00:49:01;;;;;;;;;;;;;;;17.84;68.11;99718.38;5084010;28;1855;-47
2021/12/12 00:51:29;;;;;;;;;;;;;;;17.86;67.96;99713.69;5073344;28;1972;-47
2021/12/12 00:53:55;;;;;;;;;;;;;;;17.80;68.25;99708.94;5084262;28;1912;-47
2021/12/12 00:56:23;;;;;;;;;;;;;;;17.78;68.10;99694.88;5083545;28;1555;-47
2021/12/12 00:58:50;;;;;;;;;;;;;;;17.83;68.02;99707.81;5084197;28;1801;-47
2021/12/12 01:01:20;;;;;;;;;;;;;;;18.37;66.86;99700.56;5083883;28;1815;-47
2021/12/12 01:03:49;;;;;;;;;;;;;;;18.69;66.63;99697.22;5087983;28;1860;-49
2021/12/12 01:06:16;;;;;;;;;;;;;;;18.92;66.32;99687.81;5073162;28;1917;-47
2021/12/12 01:08:44;;;;;;;;;;;;;;;19.26;65.75;99711.91;5080374;28;1780;-47
2021/12/12 01:11:12;;;;;;;;;;;;;;;19.24;65.03;99685.25;5083822;28;1906;-48
2021/12/12 01:13:40;;;;;;;;;;;;;;;19.62;63.13;99684.84;5083675;28;1807;-47
2021/12/12 01:16:09;;;;;;;;;;;;;;;19.50;63.81;99681.63;5083792;28;1763;-47
2021/12/12 01:18:40;;;;;;;;;;;;;;;19.51;64.35;99672.56;5085735;28;1964;-47
2021/12/12 01:21:11;;;;;;;;;;;;;;;19.43;63.62;99692.16;5084610;28;1076;-48
2021/12/12 01:23:40;;;;;;;;;;;;;;;19.31;63.96;99684.59;5092016;28;2254;-47
2021/12/12 01:26:07;;;;;;;;;;;;;;;19.14;64.47;99687.25;5088014;28;1627;-47
2021/12/12 01:28:36;;;;;;;;;;;;;;;19.21;65.36;99714.22;5083339;28;1003;-47
2021/12/12 01:31:05;;;;;;;;;;;;;;;19.15;65.56;99717.56;5089889;28;1906;-48
2021/12/12 01:33:34;;;;;;;;;;;;;;;19.22;63.77;99705.19;5083976;28;1909;-48
2021/12/12 01:36:01;;;;;;;;;;;;;;;18.98;65.70;99698.75;5089017;28;2012;-48
2021/12/12 01:41:13;;;;;;;;;;;;;;;18.61;64.81;99697.19;5094281;28;2233;-47
2021/12/12 01:43:42;;;;;;;;;;;;;;;18.45;65.49;99697.09;5097064;28;1648;-47
2021/12/12 01:46:14;;;;;;;;;;;;;;;18.36;66.01;99695.34;5087661;28;1834;-48
2021/12/12 01:48:43;;;;;;;;;;;;;;;18.31;66.04;99678.94;5090078;28;1767;-48
2021/12/12 01:51:11;;;;;;;;;;;;;;;18.26;65.89;99682.06;5088234;28;1910;-48
2021/12/12 01:53:39;;;;;;;;;;;;;;;18.11;66.52;99668.44;5091664;28;2080;-48
2021/12/12 01:56:07;;;;;;;;;;;;;;;18.13;66.36;99670.97;5087317;28;1546;-48
2021/12/12 01:58:35;;;;;;;;;;;;;;;18.02;67.01;99664.00;5086929;28;1413;-48
2021/12/12 02:01:05;;;;;;;;;;;;;;;18.05;66.68;99674.41;5088149;28;1790;-48
2021/12/12 02:03:34;;;;;;;;;;;;;;;18.10;65.82;99656.03;5091152;28;1552;-48
2021/12/12 02:06:01;;;;;;;;;;;;;;;18.03;66.43;99671.06;5085527;28;1487;-48
2021/12/12 02:08:28;;;;;;;;;;;;;;;18.08;66.13;99669.59;5081814;28;2223;-48
2021/12/12 02:10:56;;;;;;;;;;;;;;;18.07;66.41;99667.06;5087011;28;1852;-48
2021/12/12 02:13:25;;;;;;;;;;;;;;;17.98;66.69;99666.16;5087238;28;1984;-48
2021/12/12 02:15:54;;;;;;;;;;;;;;;17.99;66.40;99667.84;5080331;28;1824;-48
2021/12/12 02:18:27;;;;;;;;;;;;;;;17.97;65.80;99645.78;5093103;28;1513;-48
2021/12/12 02:21:07;;;;;;;;;;;;;;;17.95;66.13;99658.47;5085022;28;1126;-48
2021/12/12 02:23:46;;;;;;;;;;;;;;;17.97;66.48;99661.81;5083732;28;2053;-48
2021/12/12 02:37:10;;;;;;;;;;;;;;;17.96;65.51;99672.66;5085367;28;2272;-48
2021/12/12 02:39:39;;;;;;;;;;;;;;;17.94;66.08;99671.97;5087397;28;995;-47
2021/12/12 02:42:07;;;;;;;;;;;;;;;17.88;66.10;99681.47;5088762;28;1981;-47
2021/12/12 02:44:36;;;;;;;;;;;;;;;17.83;66.48;99673.03;5088517;28;2001;-48
2021/12/12 02:47:09;;;;;;;;;;;;;;;17.89;66.01;99675.97;5086965;28;2046;-47
2021/12/12 02:49:40;;;;;;;;;;;;;;;17.87;66.40;99671.78;5086304;28;1737;-47
2021/12/12 02:52:09;;;;;;;;;;;;;;;17.82;66.41;99672.19;5076803;28;2490;-49
2021/12/12 02:54:35;;;;;;;;;;;;;;;17.59;67.74;99657.63;5084726;28;1666;-48
2021/12/12 02:57:04;;;;;;;;;;;;;;;17.45;69.48;99645.66;5088205;28;1766;-47
2021/12/12 02:59:31;;;;;;;;;;;;;;;17.72;68.35;99634.00;5088501;28;2347;-47
2021/12/12 03:01:59;;;;;;;;;;;;;;;18.14;67.24;99627.97;5124494;22;3717;-45
2021/12/12 03:04:26;;;;;;;;;;;;;;;18.29;67.59;99633.59;4994009;28;1763;-45
2021/12/12 03:06:54;;;;;;;;;;;;;;;18.27;67.81;99625.72;4994485;28;1075;-45
2021/12/12 03:09:23;;;;;;;;;;;;;;;18.38;68.08;99653.22;4993910;28;1727;-45
2021/12/12 03:11:51;;;;;;;;;;;;;;;18.49;67.79;99651.09;4993629;28;2108;-45
2021/12/12 03:14:19;;;;;;;;;;;;;;;18.57;67.54;99661.03;4993979;28;1509;-45
2021/12/12 03:16:46;;;;;;;;;;;;;;;18.68;67.20;99660.75;4993902;28;1777;-45
2021/12/12 03:19:13;;;;;;;;;;;;;;;18.48;68.04;99678.88;4993577;28;1860;-44
2021/12/12 03:21:42;;;;;;;;;;;;;;;18.74;67.81;99669.13;4994802;28;1078;-45
2021/12/12 03:24:10;;;;;;;;;;;;;;;18.81;68.36;99662.16;4993472;28;1837;-46
2021/12/12 03:26:37;;;;;;;;;;;;;;;18.79;68.15;99665.00;4993604;28;1589;-45
2021/12/12 03:29:06;;;;;;;;;;;;;;;18.63;69.10;99663.06;4993731;28;1781;-45
2021/12/12 03:31:36;;;;;;;;;;;;;;;18.59;68.96;99652.84;4993459;28;1668;-44
2021/12/12 03:34:05;;;;;;;;;;;;;;;18.57;69.09;99647.63;4991511;28;1906;-46
2021/12/12 03:36:32;;;;;;;;;;;;;;;18.57;68.85;99634.25;4994593;28;995;-45
2021/12/12 03:39:00;;;;;;;;;;;;;;;18.62;68.50;99647.13;4993328;28;2016;-46
2021/12/12 03:41:29;;;;;;;;;;;;;;;18.62;68.67;99645.31;4993434;28;1776;-45
2021/12/12 03:43:57;;;;;;;;;;;;;;;18.62;68.95;99639.09;4993301;28;1537;-47
2021/12/12 03:46:24;;;;;;;;;;;;;;;18.57;69.00;99646.81;4992000;28;1633;-46
2021/12/12 03:48:54;;;;;;;;;;;;;;;18.52;69.19;99647.25;4993358;28;1796;-47
2021/12/12 03:51:21;;;;;;;;;;;;;;;18.55;69.34;99640.75;4994230;28;1086;-47
2021/12/12 03:53:48;;;;;;;;;;;;;;;18.55;69.11;99681.75;4992918;28;1902;-47
2021/12/12 03:56:15;;;;;;;;;;;;;;;18.60;69.52;99706.22;4992979;28;1461;-47
2021/12/12 03:58:43;;;;;;;;;;;;;;;18.62;69.70;99701.56;4993014;28;1542;-47
2021/12/12 04:01:11;;;;;;;;;;;;;;;18.55;69.20;99705.84;4992592;28;2261;-47
2021/12/12 04:03:39;;;;;;;;;;;;;;;18.61;69.54;99697.19;4992951;28;2255;-47
2021/12/12 04:06:09;;;;;;;;;;;;;;;18.59;69.87;99693.00;4993654;28;1140;-47
2021/12/12 04:08:36;;;;;;;;;;;;;;;18.66;69.75;99704.72;4992627;28;2262;-47
2021/12/12 04:11:04;;;;;;;;;;;;;;;18.78;68.71;99710.66;4992631;28;1564;-47
2021/12/12 04:13:30;;;;;;;;;;;;;;;18.85;69.69;99717.09;4992689;28;1927;-48
2021/12/12 04:15:57;;;;;;;;;;;;;;;18.75;69.41;99737.78;4992467;28;1673;-47
2021/12/12 04:18:25;;;;;;;;;;;;;;;18.76;68.67;99731.41;4991600;28;2128;-47
2021/12/12 04:20:51;;;;;;;;;;;;;;;18.76;68.60;99728.72;4993299;28;1146;-47
2021/12/12 04:23:21;;;;;;;;;;;;;;;18.72;68.77;99735.41;4992438;28;1840;-47
2021/12/12 04:25:48;;;;;;;;;;;;;;;18.73;69.42;99727.22;4991762;28;1704;-48
2021/12/12 04:28:14;;;;;;;;;;;;;;;18.76;69.19;99745.66;4985056;28;1006;-48
2021/12/12 04:30:43;;;;;;;;;;;;;;;18.81;69.02;99761.28;4991392;28;1958;-48
2021/12/12 04:33:09;;;;;;;;;;;;;;;18.76;68.84;99734.06;4992795;28;1906;-47
2021/12/12 04:35:36;;;;;;;;;;;;;;;18.69;69.94;99733.88;4992531;28;1870;-48
2021/12/12 04:38:03;;;;;;;;;;;;;;;18.88;69.08;99719.47;4991951;28;1581;-47
2021/12/12 04:40:34;;;;;;;;;;;;;;;19.00;68.35;99712.81;4991938;28;1685;-47
2021/12/12 04:43:02;;;;;;;;;;;;;;;19.07;69.01;99708.47;4992096;28;1498;-47
2021/12/12 04:45:35;;;;;;;;;;;;;;;18.87;68.73;99745.38;4990892;28;1676;-47
2021/12/12 04:50:50;;;;;;;;;;;;;;;18.69;69.25;99782.91;4989817;28;813;-47
2021/12/12 04:53:19;;;;;;;;;;;;;;;18.67;69.94;99784.91;4992095;28;1906;-47
2021/12/12 04:55:53;;;;;;;;;;;;;;;18.65;70.19;99797.63;4992138;28;1682;-48
2021/12/12 04:58:22;;;;;;;;;;;;;;;18.65;69.69;99807.50;4983453;28;1668;-47
2021/12/12 05:00:50;;;;;;;;;;;;;;;18.66;69.74;99791.28;4987586;28;1733;-47
2021/12/12 05:03:22;;;;;;;;;;;;;;;18.63;70.77;99804.97;4992116;28;2063;-47
2021/12/12 05:05:58;;;;;;;;;;;;;;;18.67;70.15;99800.16;4993007;28;1094;-47
2021/12/12 05:08:32;;;;;;;;;;;;;;;18.66;70.36;99802.00;4991722;28;1835;-48
2021/12/12 05:11:04;;;;;;;;;;;;;;;18.68;69.80;99826.78;4991825;28;1660;-47
2021/12/12 05:13:33;;;;;;;;;;;;;;;18.76;70.09;99830.50;4991713;28;1914;-48
2021/12/12 05:16:01;;;;;;;;;;;;;;;18.69;70.43;99833.81;4986038;28;2299;-47
2021/12/12 05:18:30;;;;;;;;;;;;;;;18.74;69.61;99829.81;4991930;28;1752;-47
2021/12/12 05:20:58;;;;;;;;;;;;;;;18.47;70.13;99807.53;4992694;28;1246;-48
2021/12/12 05:23:26;;;;;;;;;;;;;;;18.60;71.09;99837.44;4991945;28;2031;-48
2021/12/12 05:25:56;;;;;;;;;;;;;;;18.60;70.81;99861.53;4992001;28;2253;-48
2021/12/12 05:28:27;;;;;;;;;;;;;;;18.69;69.89;99841.84;4992607;28;1096;-48
2021/12/12 05:30:54;;;;;;;;;;;;;;;18.61;70.41;99855.16;4991679;28;1876;-47
2021/12/12 05:33:21;;;;;;;;;;;;;;;18.60;70.14;99858.84;4991397;28;1902;-47
2021/12/12 05:35:48;;;;;;;;;;;;;;;18.60;70.07;99858.84;4991399;28;1549;-47
2021/12/12 05:38:15;;;;;;;;;;;;;;;18.61;70.25;99873.91;4991466;28;1714;-47
2021/12/12 05:40:44;;;;;;;;;;;;;;;18.62;70.36;99875.59;4991639;28;1840;-47
2021/12/12 05:43:12;;;;;;;;;;;;;;;18.59;70.58;99893.81;4991823;28;1649;-48
2021/12/12 05:45:39;;;;;;;;;;;;;;;18.69;70.34;99902.59;4989821;28;1958;-47
2021/12/12 05:48:07;;;;;;;;;;;;;;;18.65;70.29;99918.13;4991451;28;1677;-48
2021/12/12 05:50:34;;;;;;;;;;;;;;;18.66;70.92;99902.88;4992493;28;1072;-48
2021/12/12 05:53:01;;;;;;;;;;;;;;;18.64;71.63;99932.53;4991584;28;1903;-47
2021/12/12 05:55:30;;;;;;;;;;;;;;;18.64;70.45;99929.84;4991013;28;1707;-48
2021/12/12 05:58:01;;;;;;;;;;;;;;;18.70;71.51;99947.13;4991393;28;1952;-47
2021/12/12 06:00:30;;;;;;;;;;;;;;;18.76;70.67;99959.91;4987460;28;2295;-48
2021/12/12 06:02:58;;;;;;;;;;;;;;;18.65;70.94;99949.44;4987488;28;1601;-47
2021/12/12 06:05:25;;;;;;;;;;;;;;;18.73;71.48;99978.13;4992023;28;1072;-47
2021/12/12 06:07:54;;;;;;;;;;;;;;;18.74;71.39;99990.50;4991390;28;1656;-48
2021/12/12 06:10:21;;;;;;;;;;;;;;;18.72;71.35;99997.84;4994174;28;2366;-48
2021/12/12 06:12:48;;;;;;;;;;;;;;;18.73;70.26;99986.16;4995053;28;1981;-48
2021/12/12 06:15:17;;;;;;;;;;;;;;;18.73;70.35;99995.03;4995084;28;2023;-47
2021/12/12 06:17:44;;;;;;;;;;;;;;;18.69;71.73;100013.22;4995803;28;1563;-48
2021/12/12 06:20:13;;;;;;;;;;;;;;;18.66;71.36;100013.56;4995044;28;1757;-47
2021/12/12 06:22:40;;;;;;;;;;;;;;;18.62;71.26;100009.50;4994850;28;1902;-48
2021/12/12 06:25:08;;;;;;;;;;;;;;;18.62;71.37;100001.47;4994484;28;1477;-48
2021/12/12 06:27:35;;;;;;;;;;;;;;;18.54;71.11;100016.59;4995816;28;1147;-47
2021/12/12 06:30:02;;;;;;;;;;;;;;;18.54;71.42;100030.81;4994333;28;1517;-47
2021/12/12 06:32:28;;;;;;;;;;;;;;;18.52;70.91;100024.75;4992595;28;1766;-47
2021/12/12 06:34:56;;;;;;;;;;;;;;;18.56;71.20;100036.00;4993908;28;1972;-47
2021/12/12 06:37:24;;;;;;;;;;;;;;;18.85;70.13;100038.53;4994573;28;1905;-48
2021/12/12 06:39:51;;;;;;;;;;;;;;;19.00;69.56;100049.56;4994764;28;1953;-48
2021/12/12 06:42:17;;;;;;;;;;;;;;;19.04;70.40;100045.59;4994801;28;1064;-48
2021/12/12 06:44:44;;;;;;;;;;;;;;;19.05;70.44;100050.78;4994114;28;1886;-48
2021/12/12 06:47:13;;;;;;;;;;;;;;;19.03;70.07;100059.97;4989168;28;1892;-48
2021/12/12 06:49:40;;;;;;;;;;;;;;;18.96;69.93;100048.19;4989484;28;1986;-48
2021/12/12 06:52:08;;;;;;;;;;;;;;;18.93;69.48;100060.06;4994639;28;1724;-50
2021/12/12 06:54:36;;;;;;;;;;;;;;;19.00;69.11;100069.19;4994341;28;1902;-49
2021/12/12 06:57:05;;;;;;;;;;;;;;;18.82;69.86;100085.22;4993947;28;1765;-48
2021/12/12 06:59:33;;;;;;;;;;;;;;;18.98;69.29;100097.97;4990796;28;1790;-48
2021/12/12 07:02:00;;;;;;;;;;;;;;;19.07;69.39;100107.75;4986994;28;2044;-49
2021/12/12 07:04:27;;;;;;;;;;;;;;;19.12;69.67;100117.16;4947734;28;10881;-48
2021/12/12 07:06:57;;;;;;;;;;;;;;;19.23;70.04;100115.09;4952245;28;1685;-48
2021/12/12 07:09:24;;;;;;;;;;;;;;;19.18;69.90;100132.63;4965307;28;1779;-48
2021/12/12 07:11:53;;;;;;;;;;;;;;;18.93;70.87;100144.94;4963707;28;1964;-48
2021/12/12 07:14:20;;;;;;;;;;;;;;;19.02;70.46;100144.91;4960213;28;1975;-47
2021/12/12 07:16:47;;;;;;;;;;;;;;;18.84;70.85;100141.31;4965563;28;1810;-48
2021/12/12 07:19:15;;;;;;;;;;;;;;;18.82;72.29;100143.31;4966646;28;1710;-48
2021/12/12 07:21:42;;;;;;;;;;;;;;;18.60;71.26;100158.75;4990191;28;1147;-48
2021/12/12 07:24:09;;;;;;;;;;;;;;;18.63;71.15;100161.13;4966146;28;1908;-48
2021/12/12 07:26:36;;;;;;;;;;;;;;;18.58;70.98;100155.38;4968992;28;1905;-48
2021/12/12 07:29:08;;;;;;;;;;;;;;;18.85;70.26;100167.13;4972705;28;1925;-47
2021/12/12 07:31:36;;;;;;;;;;;;;;;18.62;71.61;100175.53;4973772;28;1814;-48
2021/12/12 07:34:07;;;;;;;;;;;;;;;18.57;72.33;100187.66;4955753;28;1976;-48
2021/12/12 07:36:44;;;;;;;;;;;;;;;18.69;72.12;100197.19;4974749;28;1104;-49
2021/12/12 07:39:12;;;;;;;;;;;;;;;18.74;71.41;100199.41;4958823;28;1928;-48
2021/12/12 07:41:44;;;;;;;;;;;;;;;18.78;72.19;100200.81;4956895;28;1951;-49
2021/12/12 07:44:14;;;;;;;;;;;;;;;19.00;71.90;100216.56;4985013;28;1519;-48
2021/12/12 07:46:40;;;;;;;;;;;;;;;19.31;69.12;100236.81;4982424;28;1958;-48
2021/12/12 07:49:07;;;;;;;;;;;;;;;19.50;69.12;100243.88;4982225;28;1827;-48
2021/12/12 07:51:34;;;;;;;;;;;;;;;19.37;71.10;100239.75;4978991;28;1224;-49
2021/12/12 07:54:02;;;;;;;;;;;;;;;19.22;71.37;100244.78;4967697;28;1967;-48
2021/12/12 07:56:29;;;;;;;;;;;;;;;18.80;72.10;100258.66;4967886;28;1764;-48
2021/12/12 07:58:56;;;;;;;;;;;;;;;18.87;73.42;100250.88;4983825;28;1828;-47
2021/12/12 08:01:25;;;;;;;;;;;;;;;19.17;71.65;100254.25;4981748;28;1736;-48
2021/12/12 08:03:52;;;;;;;;;;;;;;;19.29;72.02;100269.13;4979660;28;1734;-48
2021/12/12 08:06:19;;;;;;;;;;;;;;;19.40;70.69;100276.16;4982371;28;1004;-47
2021/12/12 08:08:45;;;;;;;;;;;;;;;19.46;70.23;100279.06;4967705;28;2071;-47
2021/12/12 08:11:18;;;;;;;;;;;;;;;19.44;72.10;100267.66;4962886;28;1650;-47
2021/12/12 08:13:45;;;;;;;;;;;;;;;19.46;71.30;100275.56;4967026;28;1902;-47
2021/12/12 08:16:14;;;;;;;;;;;;;;;19.60;71.85;100263.47;4969168;28;1634;-48
2021/12/12 08:18:45;;;;;;;;;;;;;;;19.20;71.46;100278.94;4965801;28;1786;-47
2021/12/12 08:21:13;;;;;;;;;;;;;;;18.98;72.36;100279.28;4968005;28;1206;-47
2021/12/12 08:23:39;;;;;;;;;;;;;;;19.05;72.90;100299.16;4982996;28;1974;-47
2021/12/12 08:26:10;;;;;;;;;;;;;;;19.04;72.06;100309.06;4966673;28;1816;-49
2021/12/12 08:28:43;;;;;;;;;;;;;;;19.05;71.79;100305.34;4970404;28;1852;-48
2021/12/12 08:31:13;;;;;;;;;;;;;;;19.05;72.74;100288.44;4970613;28;1317;-49
2021/12/12 08:33:46;;;;;;;;;;;;;;;19.22;71.42;100314.47;4979137;28;1910;-48
2021/12/12 08:36:17;;;;;;;;;;;;;;;19.15;71.88;100320.56;4971363;28;1692;-48
2021/12/12 08:38:47;;;;;;;;;;;;;;;19.20;72.92;100302.19;4965869;28;1602;-47
2021/12/12 08:41:13;;;;;;;;;;;;;;;19.37;71.85;100298.72;4963615;28;1816;-47
2021/12/12 08:43:50;;;;;;;;;;;;;;;19.53;72.15;100297.25;4964041;28;1724;-47
2021/12/12 08:46:17;;;;;;;;;;;;;;;19.44;70.84;100317.75;4968696;28;1455;-48
2021/12/12 08:48:51;;;;;;;;;;;;;;;19.33;71.04;100315.28;4973022;28;1613;-47
2021/12/12 08:51:21;;;;;;;;;;;;;;;19.11;71.29;100329.91;4971758;28;1726;-48
2021/12/12 08:53:54;;;;;;;;;;;;;;;19.00;71.97;100329.09;4965207;28;1914;-47
2021/12/12 08:56:42;;;;;;;;;;;;;;;18.99;71.15;100345.31;4963363;28;1866;-48
2021/12/12 08:59:13;;;;;;;;;;;;;;;18.85;70.06;100349.28;4966972;28;1848;-48
2021/12/12 09:01:40;;;;;;;;;;;;;;;18.84;71.08;100356.50;4957567;28;2025;-48
2021/12/12 09:04:09;;;;;;;;;;;;;;;18.76;70.84;100363.50;4971951;28;1561;-48
2021/12/12 09:06:38;;;;;;;;;;;;;;;18.75;71.77;100354.63;4990235;28;1173;-48
2021/12/12 09:09:20;;;;;;;;;;;;;;;18.76;70.70;100350.97;4960076;28;1891;-48
2021/12/12 09:11:53;;;;;;;;;;;;;;;18.79;71.12;100353.38;4968387;28;1893;-48
2021/12/12 09:14:32;;;;;;;;;;;;;;;18.77;70.67;100354.50;4961070;28;1902;-49
2021/12/12 09:17:07;;;;;;;;;;;;;;;18.74;71.27;100362.81;4975252;28;1767;-47
2021/12/12 09:19:49;;;;;;;;;;;;;;;18.74;71.28;100376.19;4972076;28;1678;-47
2021/12/12 09:22:25;;;;;;;;;;;;;;;18.69;71.80;100366.75;4972561;28;1833;-48
2021/12/12 09:24:57;;;;;;;;;;;;;;;18.74;71.08;100355.63;4958671;28;1757;-47
2021/12/12 09:27:29;;;;;;;;;;;;;;;18.79;71.17;100358.75;4956044;28;1128;-48
2021/12/12 09:29:59;;;;;;;;;;;;;;;18.78;70.83;100359.72;4957093;28;1645;-47
2021/12/12 09:32:28;;;;;;;;;;;;;;;18.86;70.32;100359.88;4972521;28;1749;-48
2021/12/12 09:35:07;;;;;;;;;;;;;;;18.93;70.82;100360.13;4967525;28;1902;-48
2021/12/12 09:37:44;;;;;;;;;;;;;;;18.65;71.52;100360.00;4970020;28;1638;-48
2021/12/12 09:40:21;;;;;;;;;;;;;;;18.72;70.81;100360.31;4965003;28;1541;-47
2021/12/12 09:43:00;;;;;;;;;;;;;;;18.69;71.03;100345.34;4967289;28;1593;-47
2021/12/12 09:45:42;;;;;;;;;;;;;;;18.58;70.30;100348.19;4973077;28;1774;-47
2021/12/12 09:51:26;;;;;;;;;;;;;;;18.38;71.91;100351.84;4948483;28;1505;-48
2021/12/12 09:54:02;;;;;;;;;;;;;;;18.29;72.30;100334.81;4979251;28;1906;-47
2021/12/12 09:56:34;;;;;;;;;;;;;;;18.37;71.84;100326.09;4988766;28;1772;-47
2021/12/12 09:59:04;;;;;;;;;;;;;;;18.27;72.48;100351.00;4986010;28;2401;-47
2021/12/12 10:01:33;;;;;;;;;;;;;;;18.20;72.41;100363.25;4974797;28;1801;-47
2021/12/12 10:04:16;;;;;;;;;;;;;;;18.13;72.27;100362.16;4967168;28;1829;-47
2021/12/12 10:06:46;;;;;;;;;;;;;;;18.17;72.39;100374.25;4958793;28;1048;-47
2021/12/12 10:09:15;;;;;;;;;;;;;;;18.12;72.64;100375.66;4979009;28;1922;-48
2021/12/12 10:11:43;;;;;;;;;;;;;;;18.02;71.99;100364.94;4977723;28;1721;-46
2021/12/12 10:14:18;;;;;;;;;;;;;;;17.89;71.23;100381.25;4982492;28;1906;-47
2021/12/12 10:16:49;;;;;;;;;;;;;;;17.85;71.00;100374.50;4971902;28;1796;-48
2021/12/12 10:19:21;;;;;;;;;;;;;;;17.77;72.66;100364.44;4965922;28;1619;-48
2021/12/12 10:22:00;;;;;;;;;;;;;;;17.74;72.60;100379.91;4971555;28;1944;-47
2021/12/12 10:24:29;;;;;;;;;;;;;;;17.74;72.23;100383.44;4985214;28;1951;-48
2021/12/12 10:27:00;;;;;;;;;;;;;;;17.76;71.70;100392.16;4963578;28;1928;-48
2021/12/12 10:29:29;;;;;;;;;;;;;;;17.72;71.73;100408.63;4971493;28;1671;-48
2021/12/12 10:31:58;;;;;;;;;;;;;;;17.66;71.78;100418.03;4968863;28;1730;-46
2021/12/12 10:34:27;;;;;;;;;;;;;;;17.62;69.88;100427.31;4966327;28;1914;-46
2021/12/12 10:37:12;;;;;;;;;;;;;;;17.43;68.98;100433.44;4975157;28;1677;-46
2021/12/12 10:39:41;;;;;;;;;;;;;;;16.74;66.04;100436.63;4972846;28;1568;-47
2021/12/12 10:42:12;;;;;;;;;;;;;;;16.95;65.16;100447.31;4971101;28;1713;-46
2021/12/12 10:45:02;;;;;;;;;;;;;;;17.10;65.92;100448.69;4974648;28;1887;-47
2021/12/12 10:47:36;;;;;;;;;;;;;;;17.28;66.42;100468.50;4977028;28;1965;-46
2021/12/12 10:50:10;;;;;;;;;;;;;;;17.37;66.54;100466.88;4988965;28;1974;-47
2021/12/12 10:52:44;;;;;;;;;;;;;;;17.40;67.28;100463.91;4976225;28;1702;-46
2021/12/12 10:55:24;;;;;;;;;;;;;;;17.42;67.98;100466.47;4970108;28;1973;-47
2021/12/12 10:57:57;;;;;;;;;;;;;;;17.40;68.35;100460.41;4958473;28;1673;-47
2021/12/12 11:00:26;;;;;;;;;;;;;;;17.38;68.58;100468.56;4986360;28;1869;-47
2021/12/12 11:02:56;;;;;;;;;;;;;;;17.47;68.86;100462.44;4976010;28;2030;-47
2021/12/12 11:05:35;;;;;;;;;;;;;;;17.47;69.00;100457.06;4965329;28;1608;-47
2021/12/12 11:08:10;;;;;;;;;;;;;;;17.49;69.43;100460.47;4968303;28;1797;-46
2021/12/12 11:10:39;;;;;;;;;;;;;;;17.41;69.64;100449.59;4985015;28;1999;-46
2021/12/12 11:13:15;;;;;;;;;;;;;;;17.34;69.92;100442.22;4974143;28;1443;-47
2021/12/12 11:15:46;;;;;;;;;;;;;;;17.33;70.68;100449.41;4972606;28;1981;-47
2021/12/12 11:18:20;;;;;;;;;;;;;;;17.32;70.85;100447.72;4974206;28;2080;-46
2021/12/12 11:20:50;;;;;;;;;;;;;;;17.46;70.77;100452.69;4972010;28;1753;-47
2021/12/12 11:23:22;;;;;;;;;;;;;;;17.34;71.25;100445.75;4969857;28;1615;-47
2021/12/12 11:25:51;;;;;;;;;;;;;;;17.42;71.56;100453.09;4977431;28;1712;-46
2021/12/12 11:28:20;;;;;;;;;;;;;;;17.39;71.88;100464.03;4979588;28;1366;-45
2021/12/12 11:30:50;;;;;;;;;;;;;;;17.42;71.67;100464.63;4970366;28;1852;-44
2021/12/12 11:33:45;;;;;;;;;;;;;;;17.42;71.98;100469.97;4963502;28;1605;-44
2021/12/12 11:36:14;;;;;;;;;;;;;;;17.39;71.88;100480.97;4963400;28;2029;-45
2021/12/12 11:38:47;;;;;;;;;;;;;;;17.35;71.97;100466.16;4974627;28;1958;-44
2021/12/12 11:41:30;;;;;;;;;;;;;;;17.66;70.87;100471.50;4973923;28;1627;-47
2021/12/12 11:44:18;;;;;;;;;;;;;;;17.96;70.58;100477.84;4974233;28;1723;-44
2021/12/12 11:46:53;;;;;;;;;;;;;;;17.70;70.19;100491.66;4970805;28;1856;-44
2021/12/12 11:49:22;;;;;;;;;;;;;;;17.77;70.51;100489.31;4961295;28;1996;-44
2021/12/12 11:51:51;;;;;;;;;;;;;;;17.93;69.96;100495.03;4975569;28;1381;-44
2021/12/12 11:54:29;;;;;;;;;;;;;;;18.01;70.16;100486.34;4966747;28;2240;-44
2021/12/12 11:57:03;;;;;;;;;;;;;;;18.03;69.25;100479.03;4977881;28;1754;-44
2021/12/12 11:59:43;;;;;;;;;;;;;;;18.03;69.47;100492.41;4965289;28;1762;-44
2021/12/12 12:02:33;;;;;;;;;;;;;;;18.05;69.31;100493.09;4970738;28;2085;-45
2021/12/12 12:05:07;;;;;;;;;;;;;;;18.20;69.14;100502.44;4973888;28;1926;-45
2021/12/12 12:07:44;;;;;;;;;;;;;;;18.13;70.02;100509.31;4967661;28;1582;-44
2021/12/12 12:10:21;;;;;;;;;;;;;;;18.00;69.94;100519.41;4973734;28;1838;-46
2021/12/12 12:13:05;;;;;;;;;;;;;;;18.11;70.19;100519.31;4975403;28;1819;-45
2021/12/12 12:15:40;;;;;;;;;;;;;;;18.45;69.54;100517.16;4965607;28;1914;-44
2021/12/12 12:18:18;;;;;;;;;;;;;;;18.62;69.43;100512.09;4970917;28;1727;-45
2021/12/12 12:20:52;;;;;;;;;;;;;;;18.43;69.46;100507.56;4964945;28;1459;-44
2021/12/12 12:23:41;;;;;;;;;;;;;;;18.42;69.44;100517.44;4953867;28;1865;-45
2021/12/12 12:29:30;;;;;;;;;;;;;;;18.32;69.69;100519.22;4975152;28;1940;-45
2021/12/12 12:32:17;;;;;;;;;;;;;;;18.29;70.54;100506.13;4970866;28;1908;-45
2021/12/12 12:35:12;;;;;;;;;;;;;;;18.18;70.93;100504.38;4925868;29;1907;-44
2021/12/12 12:37:59;;;;;;;;;;;;;;;18.10;71.13;100520.28;4972883;28;1753;-45
2021/12/12 12:41:08;;;;;;;;;;;;;;;18.23;70.47;100526.25;4962986;28;1890;-44
2021/12/12 12:47:18;;;;;;;;;;;;;;;18.34;71.02;100535.16;5084493;27;1491;-44
2021/12/12 12:50:15;;;;;;;;;;;;;;;18.51;69.86;100547.88;5063025;28;1954;-45
2021/12/12 12:53:10;;;;;;;;;;;;;;;18.68;69.17;100512.41;5052871;28;1938;-45
2021/12/12 12:56:07;;;;;;;;;;;;;;;18.51;70.41;100537.19;5047856;28;1925;-45
2021/12/12 12:59:03;;;;;;;;;;;;;;;18.47;70.79;100531.25;5051668;28;1954;-46
2021/12/12 13:01:34;;;;;;;;;;;;;;;18.30;70.77;100529.22;5057571;28;1890;-46
2021/12/12 13:04:28;;;;;;;;;;;;;;;18.45;70.83;100527.03;5051696;28;1932;-46
2021/12/12 13:07:10;;;;;;;;;;;;;;;18.49;70.04;100526.59;5050362;28;1161;-46
2021/12/12 13:09:52;;;;;;;;;;;;;;;18.33;70.18;100528.97;5056258;28;1056;-46
2021/12/12 13:12:28;;;;;;;;;;;;;;;18.26;70.91;100512.63;5064616;28;1347;-46
2021/12/12 13:15:02;;;;;;;;;;;;;;;18.35;70.62;100526.16;5050234;28;1070;-44
2021/12/12 13:17:41;;;;;;;;;;;;;;;18.50;69.54;100530.13;5051902;28;2015;-44
2021/12/12 13:20:28;;;;;;;;;;;;;;;18.47;70.15;100517.00;5059631;28;1648;-44
2021/12/12 13:23:00;;;;;;;;;;;;;;;18.53;70.31;100518.31;5065844;28;1943;-45
2021/12/12 13:25:33;;;;;;;;;;;;;;;18.35;70.56;100510.94;5061176;28;1914;-48
2021/12/12 13:28:17;;;;;;;;;;;;;;;18.14;70.69;100519.03;5065504;28;2131;-47
2021/12/12 13:30:59;;;;;;;;;;;;;;;17.96;71.69;100536.72;5054014;28;1717;-50
2021/12/12 13:33:34;;;;;;;;;;;;;;;17.89;71.68;100542.59;5062540;28;1930;-50
2021/12/12 13:36:10;;;;;;;;;;;;;;;17.81;71.88;100545.06;5059056;28;1751;-50
2021/12/12 13:38:46;;;;;;;;;;;;;;;17.83;71.48;100559.19;5054510;28;1729;-49